Time;durP1;ratioP1;P1;durP2;ratioP2;P2;SDS_P1;SDS_P2;PMS_P1;PMS_P2;Temp;Humidity;BMP_temperature;BMP_pressure;BME280_temperature;BME280_humidity;BME280_pressure;Samples;Min_cycle;Max_cycle;Signal;HPM_P1;HPM_P2
2022/04/12 00:00:42;;;;;;;12.70;7.47;;;7.90;99.90;;;;;;5034142;28;20284;-70
2022/04/12 00:03:09;;;;;;;10.27;6.95;;;8.10;99.90;;;;;;5033243;28;20053;-71
2022/04/12 00:05:37;;;;;;;12.32;7.15;;;8.00;99.90;;;;;;5032761;28;20056;-71
2022/04/12 00:08:04;;;;;;;11.35;7.15;;;7.90;99.90;;;;;;5032762;28;20107;-70
2022/04/12 00:10:31;;;;;;;11.68;7.25;;;7.90;99.90;;;;;;5033730;28;20085;-70
2022/04/12 00:12:58;;;;;;;11.88;7.47;;;7.90;99.90;;;;;;5033967;28;20068;-70
2022/04/12 00:15:24;;;;;;;12.60;7.85;;;7.90;99.90;;;;;;5033619;28;20045;-71
2022/04/12 00:20:35;;;;;;;12.68;7.55;;;7.80;99.90;;;;;;5033469;28;20310;-70
2022/04/12 00:23:01;;;;;;;10.70;7.60;;;7.80;99.90;;;;;;5033704;28;20128;-70
2022/04/12 00:25:28;;;;;;;12.05;7.85;;;7.90;99.90;;;;;;5032046;28;20049;-70
2022/04/12 00:27:55;;;;;;;11.93;7.28;;;7.80;99.90;;;;;;5033642;28;20448;-70
2022/04/12 00:30:22;;;;;;;10.90;7.47;;;7.80;99.90;;;;;;5033312;28;20084;-71
2022/04/12 00:32:50;;;;;;;10.73;7.55;;;7.80;99.90;;;;;;5033521;28;20083;-70
2022/04/12 00:35:17;;;;;;;14.55;7.93;;;7.80;99.90;;;;;;5033469;28;20056;-70
2022/04/12 00:37:43;;;;;;;12.85;8.05;;;7.70;99.90;;;;;;5033472;28;20053;-71
2022/04/12 00:40:10;;;;;;;12.30;7.60;;;7.80;99.90;;;;;;5032139;28;20492;-70
2022/04/12 00:42:36;;;;;;;13.18;7.80;;;7.80;99.90;;;;;;5034026;28;20050;-70
2022/04/12 00:45:02;;;;;;;10.50;6.90;;;7.70;99.90;;;;;;5053365;28;20114;-71
2022/04/12 00:47:28;;;;;;;10.07;7.63;;;7.70;99.90;;;;;;5052794;28;20041;-71
2022/04/12 00:49:53;;;;;;;11.90;7.27;;;7.70;99.90;;;;;;5053128;28;20389;-70
2022/04/12 00:52:19;;;;;;;12.33;7.73;;;7.70;99.90;;;;;;5053043;28;20174;-70
2022/04/12 00:54:47;;;;;;;9.80;7.43;;;7.70;99.90;;;;;;5051780;28;20053;-70
2022/04/12 00:57:13;;;;;;;10.70;8.05;;;7.70;99.90;;;;;;5035148;28;20057;-70
2022/04/12 00:59:39;;;;;;;13.13;7.90;;;7.60;99.90;;;;;;5052845;28;20049;-70
2022/04/12 01:02:06;;;;;;;12.38;8.18;;;7.60;99.90;;;;;;5052787;28;20489;-70
2022/04/12 01:04:33;;;;;;;10.80;7.70;;;7.60;99.90;;;;;;5052287;28;20049;-71
2022/04/12 01:07:00;;;;;;;11.35;8.10;;;7.50;99.90;;;;;;5052435;28;20492;-70
2022/04/12 01:09:27;;;;;;;14.63;7.10;;;7.50;99.90;;;;;;5052626;28;20170;-71
2022/04/12 01:11:57;;;;;;;13.05;7.75;;;7.50;99.90;;;;;;5052792;28;20055;-70
2022/04/12 01:14:25;;;;;;;11.90;7.93;;;7.50;99.90;;;;;;5052207;28;20388;-71
2022/04/12 01:16:52;;;;;;;11.52;7.32;;;7.50;99.90;;;;;;5052893;28;20362;-70
2022/04/12 01:19:18;;;;;;;16.35;7.60;;;7.50;99.90;;;;;;5052986;28;20048;-70
2022/04/12 01:21:56;;;;;;;10.85;7.72;;;7.40;99.90;;;;;;5034997;28;20057;-70
2022/04/12 01:24:22;;;;;;;11.82;8.15;;;7.40;99.90;;;;;;5052960;28;20072;-70
2022/04/12 01:26:48;;;;;;;12.82;8.18;;;7.40;99.90;;;;;;5052616;28;20091;-70
2022/04/12 01:29:14;;;;;;;12.90;8.60;;;7.30;99.90;;;;;;5052678;28;20080;-70
2022/04/12 01:31:41;;;;;;;14.15;8.48;;;7.30;99.90;;;;;;5052397;28;20049;-70
2022/04/12 01:34:07;;;;;;;11.07;7.57;;;7.30;99.90;;;;;;5052582;28;20045;-70
2022/04/12 01:36:32;;;;;;;15.03;8.10;;;7.30;99.90;;;;;;5034567;28;20044;-70
2022/04/12 01:38:58;;;;;;;14.73;7.73;;;7.20;99.90;;;;;;5052878;28;20052;-70
2022/04/12 01:41:24;;;;;;;11.13;7.47;;;7.20;99.90;;;;;;5051577;28;20041;-70
2022/04/12 01:43:50;;;;;;;12.77;8.10;;;7.20;99.90;;;;;;5030839;28;20060;-70
2022/04/12 01:46:15;;;;;;;11.83;7.70;;;7.20;99.90;;;;;;5032765;28;20049;-70
2022/04/12 01:48:41;;;;;;;12.57;8.43;;;7.20;99.90;;;;;;5032431;28;20151;-70
2022/04/12 01:51:07;;;;;;;12.17;7.67;;;7.20;99.90;;;;;;5032326;28;20049;-70
2022/04/12 01:53:32;;;;;;;14.67;8.20;;;7.10;99.90;;;;;;5031238;28;20045;-70
2022/04/12 01:55:58;;;;;;;13.53;8.47;;;7.10;99.90;;;;;;5031430;28;20400;-70
2022/04/12 01:58:24;;;;;;;10.17;7.70;;;7.10;99.90;;;;;;5032549;28;20044;-70
2022/04/12 02:00:49;;;;;;;10.57;8.00;;;7.00;99.90;;;;;;5031979;28;20046;-70
2022/04/12 02:03:15;;;;;;;13.23;7.97;;;7.00;99.90;;;;;;5032543;28;20042;-70
2022/04/12 02:05:41;;;;;;;14.43;8.50;;;7.10;99.90;;;;;;5032248;28;20389;-70
2022/04/12 02:08:08;;;;;;;11.23;7.90;;;7.00;99.90;;;;;;5047578;28;20052;-70
2022/04/12 02:10:34;;;;;;;12.07;8.27;;;7.00;99.90;;;;;;5032244;28;20060;-70
2022/04/12 02:13:00;;;;;;;12.27;8.23;;;7.00;99.90;;;;;;5032719;28;20042;-70
2022/04/12 02:15:25;;;;;;;12.33;8.13;;;6.80;99.90;;;;;;5032515;28;20050;-70
2022/04/12 02:17:51;;;;;;;13.47;8.70;;;6.90;99.90;;;;;;5032183;28;20049;-70
2022/04/12 02:20:17;;;;;;;11.63;8.27;;;6.90;99.90;;;;;;5032346;28;20041;-70
2022/04/12 02:22:43;;;;;;;13.60;8.50;;;6.80;99.90;;;;;;5032161;28;20131;-70
2022/04/12 02:25:09;;;;;;;13.77;8.73;;;6.90;99.90;;;;;;5032312;28;20509;-70
2022/04/12 02:27:34;;;;;;;12.30;8.68;;;6.80;99.90;;;;;;5050814;28;20053;-70
2022/04/12 02:30:00;;;;;;;14.30;8.30;;;6.80;99.90;;;;;;5051266;28;20342;-70
2022/04/12 02:32:26;;;;;;;12.50;8.13;;;6.80;99.90;;;;;;5036108;28;20146;-70
2022/04/12 02:34:51;;;;;;;12.97;8.33;;;6.80;99.90;;;;;;5035556;28;20041;-70
2022/04/12 02:37:17;;;;;;;13.63;8.87;;;6.80;99.90;;;;;;5035851;28;20045;-70
2022/04/12 02:39:43;;;;;;;11.87;8.27;;;6.80;99.90;;;;;;5035446;28;20057;-70
2022/04/12 02:42:08;;;;;;;13.77;8.83;;;6.70;99.90;;;;;;5034815;28;20486;-70
2022/04/12 02:44:34;;;;;;;10.47;8.00;;;6.70;99.90;;;;;;5052546;28;20413;-71
2022/04/12 02:47:00;;;;;;;12.80;8.70;;;6.70;99.90;;;;;;5055651;28;20091;-70
2022/04/12 02:49:25;;;;;;;13.00;9.03;;;6.70;99.90;;;;;;5055332;28;20049;-70
2022/04/12 02:51:51;;;;;;;12.60;8.87;;;6.70;99.90;;;;;;5055469;28;20080;-70
2022/04/12 02:54:17;;;;;;;13.37;8.93;;;6.70;99.90;;;;;;5037698;28;20045;-70
2022/04/12 02:56:43;;;;;;;14.45;9.77;;;6.70;99.90;;;;;;5055060;28;20045;-70
2022/04/12 02:59:09;;;;;;;15.30;8.90;;;6.70;99.90;;;;;;5055413;28;20067;-70
2022/04/12 03:01:35;;;;;;;11.70;9.30;;;6.70;99.90;;;;;;5054974;28;20374;-70
2022/04/12 03:04:01;;;;;;;11.37;8.43;;;6.70;99.90;;;;;;5037664;28;20363;-70
2022/04/12 03:06:26;;;;;;;12.03;8.87;;;6.70;99.90;;;;;;5054948;28;20131;-70
2022/04/12 03:08:52;;;;;;;12.30;9.73;;;6.60;99.90;;;;;;5054827;28;20049;-70
2022/04/12 03:11:18;;;;;;;12.80;8.40;;;6.70;99.90;;;;;;5055231;28;20050;-70
2022/04/12 03:13:43;;;;;;;14.47;9.40;;;6.70;99.90;;;;;;5054697;28;20481;-70
2022/04/12 03:16:09;;;;;;;11.67;8.47;;;6.70;99.90;;;;;;5055218;28;20041;-70
2022/04/12 03:18:35;;;;;;;15.57;9.33;;;6.60;99.90;;;;;;5054778;28;20060;-71
2022/04/12 03:21:01;;;;;;;13.13;9.80;;;6.60;99.90;;;;;;5054841;28;20049;-70
2022/04/12 03:23:27;;;;;;;13.37;9.63;;;6.60;99.90;;;;;;5020715;28;20392;-69
2022/04/12 03:25:52;;;;;;;13.40;9.60;;;6.60;99.90;;;;;;5054331;28;20048;-70
2022/04/12 03:28:18;;;;;;;13.17;9.40;;;6.60;99.90;;;;;;5054618;28;20588;-70
2022/04/12 03:30:45;;;;;;;13.40;9.68;;;6.60;99.90;;;;;;5053091;28;20041;-70
2022/04/12 03:33:11;;;;;;;12.10;9.10;;;6.60;99.90;;;;;;5036819;28;20107;-70
2022/04/12 03:35:36;;;;;;;13.23;9.07;;;6.60;99.90;;;;;;5054272;28;20122;-70
2022/04/12 03:38:02;;;;;;;13.83;9.17;;;6.60;99.90;;;;;;5054207;28;20055;-70
2022/04/12 03:40:31;;;;;;;13.20;9.37;;;6.60;99.90;;;;;;5054044;28;20052;-70
2022/04/12 03:43:01;;;;;;;13.60;9.57;;;6.60;99.90;;;;;;5053617;28;20084;-70
2022/04/12 03:45:27;;;;;;;14.93;8.68;;;6.60;99.90;;;;;;5053970;28;20474;-70
2022/04/12 03:47:54;;;;;;;13.65;9.65;;;6.60;99.90;;;;;;5054078;28;20045;-70
2022/04/12 03:50:19;;;;;;;13.82;10.25;;;6.60;99.90;;;;;;5054213;28;20159;-70
2022/04/12 03:52:45;;;;;;;12.57;9.67;;;6.60;99.90;;;;;;5053979;28;20084;-70
2022/04/12 03:55:11;;;;;;;16.43;9.90;;;6.50;99.90;;;;;;5036466;28;20037;-70
2022/04/12 03:57:37;;;;;;;16.40;9.70;;;6.50;99.90;;;;;;5036629;28;20401;-69
2022/04/12 04:00:08;;;;;;;12.47;10.03;;;6.50;99.90;;;;;;5053777;28;20045;-70
2022/04/12 04:02:36;;;;;;;13.48;9.48;;;6.50;99.90;;;;;;5054251;28;20072;-70
2022/04/12 04:05:03;;;;;;;14.93;10.35;;;6.50;99.90;;;;;;5052437;28;20055;-70
2022/04/12 04:07:29;;;;;;;15.55;9.80;;;6.50;99.90;;;;;;5052618;28;20045;-70
2022/04/12 04:09:55;;;;;;;14.07;8.93;;;6.50;99.90;;;;;;5053660;28;20060;-70
2022/04/12 04:12:22;;;;;;;12.93;9.87;;;6.50;99.90;;;;;;5054061;28;20041;-70
2022/04/12 04:14:48;;;;;;;14.85;9.85;;;6.50;99.90;;;;;;5053674;28;20040;-70
2022/04/12 04:17:14;;;;;;;13.82;9.15;;;6.50;99.90;;;;;;5054183;28;20119;-70
2022/04/12 04:19:40;;;;;;;13.93;9.77;;;6.50;99.90;;;;;;5053673;28;20059;-70
2022/04/12 04:22:06;;;;;;;14.87;10.20;;;6.50;99.90;;;;;;5053663;28;20048;-70
2022/04/12 04:24:32;;;;;;;13.53;8.80;;;6.50;99.90;;;;;;5053475;28;20053;-70
2022/04/12 04:26:58;;;;;;;13.80;10.18;;;6.40;99.90;;;;;;5053227;28;20040;-70
2022/04/12 04:29:27;;;;;;;14.98;10.38;;;6.50;99.90;;;;;;5053744;28;20049;-70
2022/04/12 04:31:53;;;;;;;12.43;9.43;;;6.40;99.90;;;;;;5035821;28;20404;-70
2022/04/12 04:34:19;;;;;;;13.43;9.98;;;6.40;99.90;;;;;;5052329;28;20448;-70
2022/04/12 04:36:45;;;;;;;15.23;10.32;;;6.40;99.90;;;;;;5053129;28;20041;-71
2022/04/12 04:39:11;;;;;;;14.40;9.93;;;6.40;99.90;;;;;;5053283;28;20099;-70
2022/04/12 04:41:36;;;;;;;13.07;9.40;;;6.50;99.90;;;;;;5053182;28;20122;-70
2022/04/12 04:44:02;;;;;;;11.97;9.50;;;6.40;99.90;;;;;;5052974;28;20306;-70
2022/04/12 04:46:29;;;;;;;14.30;9.55;;;6.40;99.90;;;;;;5053148;28;20044;-70
2022/04/12 04:48:55;;;;;;;14.10;9.73;;;6.40;99.90;;;;;;5034846;28;20052;-70
2022/04/12 04:51:20;;;;;;;13.60;9.87;;;6.40;99.90;;;;;;5052853;28;20507;-70
2022/04/12 04:53:55;;;;;;;14.17;9.43;;;6.40;99.90;;;;;;5035109;28;20051;-71
2022/04/12 04:56:21;;;;;;;13.02;9.55;;;6.40;99.90;;;;;;5035516;28;20110;-70
2022/04/12 04:58:47;;;;;;;12.73;9.40;;;6.40;99.90;;;;;;5052882;28;20092;-71
2022/04/12 05:01:13;;;;;;;16.33;10.23;;;6.50;99.90;;;;;;5052659;28;20153;-70
2022/04/12 05:03:38;;;;;;;15.67;9.77;;;6.50;99.90;;;;;;5052649;28;20049;-70
2022/04/12 05:06:04;;;;;;;13.77;10.23;;;6.50;99.90;;;;;;5052607;28;20049;-70
2022/04/12 05:08:30;;;;;;;12.27;9.70;;;6.50;99.90;;;;;;5052821;28;20131;-70
2022/04/12 05:10:55;;;;;;;14.33;10.37;;;6.60;99.90;;;;;;5052630;28;20045;-70
2022/04/12 05:13:21;;;;;;;13.47;9.77;;;6.60;99.90;;;;;;5052956;28;20107;-70
2022/04/12 05:15:47;;;;;;;15.87;9.87;;;6.60;99.90;;;;;;5051312;28;20049;-71
2022/04/12 05:18:12;;;;;;;14.10;9.90;;;6.70;99.90;;;;;;5052635;28;20092;-70
2022/04/12 05:20:38;;;;;;;13.83;9.73;;;6.70;99.90;;;;;;5034976;28;20045;-70
2022/04/12 05:23:04;;;;;;;15.67;9.40;;;6.70;99.90;;;;;;5034631;28;20045;-70
2022/04/12 05:25:29;;;;;;;13.47;10.27;;;6.70;99.90;;;;;;5052736;28;20129;-70
2022/04/12 05:27:56;;;;;;;14.73;9.47;;;6.80;99.90;;;;;;5052331;28;20406;-70
2022/04/12 05:30:22;;;;;;;15.30;9.43;;;6.80;99.90;;;;;;5034845;28;20088;-70
2022/04/12 05:32:48;;;;;;;13.67;9.40;;;6.80;99.90;;;;;;5052479;28;20087;-71
2022/04/12 05:35:14;;;;;;;12.93;9.50;;;6.90;99.90;;;;;;5052785;28;20128;-69
2022/04/12 05:37:45;;;;;;;13.60;9.80;;;6.90;99.90;;;;;;5035216;28;20071;-70
2022/04/12 05:40:12;;;;;;;14.23;10.63;;;6.90;99.90;;;;;;5052723;28;20325;-70
2022/04/12 05:42:39;;;;;;;13.80;9.15;;;6.90;99.90;;;;;;5052614;28;20060;-70
2022/04/12 05:45:06;;;;;;;16.02;10.43;;;7.00;99.90;;;;;;5052379;28;20102;-70
2022/04/12 05:47:44;;;;;;;13.43;10.00;;;7.00;99.90;;;;;;5052421;28;20049;-70
2022/04/12 05:50:13;;;;;;;13.02;9.25;;;7.00;99.90;;;;;;5052224;28;20052;-70
2022/04/12 05:52:39;;;;;;;14.77;9.95;;;7.10;99.90;;;;;;5052559;28;20041;-70
2022/04/12 05:55:10;;;;;;;11.23;9.53;;;7.10;99.90;;;;;;5052213;28;20094;-70
2022/04/12 05:57:38;;;;;;;14.18;9.75;;;7.20;99.90;;;;;;5052469;28;20136;-70
2022/04/12 06:00:06;;;;;;;14.07;9.80;;;7.30;99.90;;;;;;5050940;28;20067;-70
2022/04/12 06:02:32;;;;;;;14.50;9.68;;;7.30;99.90;;;;;;5038288;28;20051;-70
2022/04/12 06:04:58;;;;;;;14.98;9.48;;;7.40;99.90;;;;;;5055642;28;20378;-70
2022/04/12 06:07:30;;;;;;;17.40;9.33;;;7.40;99.90;;;;;;5056099;28;20051;-70
2022/04/12 06:09:56;;;;;;;14.18;9.75;;;7.40;99.90;;;;;;5055929;28;20056;-71
2022/04/12 06:12:21;;;;;;;14.13;10.23;;;7.50;99.90;;;;;;5056074;28;20052;-71
2022/04/12 06:14:47;;;;;;;13.63;9.40;;;7.60;99.90;;;;;;5055728;28;20048;-70
2022/04/12 06:17:13;;;;;;;17.63;9.10;;;7.60;99.90;;;;;;5054796;28;20067;-70
2022/04/12 06:19:38;;;;;;;12.43;9.47;;;7.60;99.90;;;;;;5054882;28;20053;-70
2022/04/12 06:22:04;;;;;;;11.97;8.63;;;7.80;99.90;;;;;;5037917;28;20491;-70
2022/04/12 06:24:30;;;;;;;13.47;9.00;;;7.80;99.90;;;;;;5055912;28;20045;-70
2022/04/12 06:26:55;;;;;;;13.53;10.27;;;7.80;99.90;;;;;;5055502;28;20389;-71
2022/04/12 06:29:21;;;;;;;13.80;9.80;;;7.90;99.90;;;;;;5054537;28;20053;-70
2022/04/12 06:31:47;;;;;;;12.43;9.10;;;7.90;99.90;;;;;;5055648;28;20060;-70
2022/04/12 06:34:12;;;;;;;11.70;9.07;;;8.00;99.90;;;;;;5055477;28;20147;-71
2022/04/12 06:36:38;;;;;;;12.60;9.57;;;8.00;99.90;;;;;;5055743;28;20045;-70
2022/04/12 06:39:04;;;;;;;13.47;9.53;;;8.10;99.90;;;;;;5055283;28;20060;-70
2022/04/12 06:41:29;;;;;;;11.87;9.20;;;8.20;99.90;;;;;;5037661;28;20048;-70
2022/04/12 06:43:55;;;;;;;12.87;9.33;;;8.30;99.90;;;;;;5054853;28;20203;-70
2022/04/12 06:46:21;;;;;;;15.70;9.70;;;;;;;;;;5054638;28;20045;-70
2022/04/12 06:48:47;;;;;;;13.00;8.98;;;8.70;99.90;;;;;;5055324;28;20041;-70
2022/04/12 06:51:12;;;;;;;13.67;8.97;;;9.00;99.90;;;;;;5020945;28;20413;-70
2022/04/12 06:53:38;;;;;;;13.97;8.73;;;8.90;98.60;;;;;;5053942;28;20053;-70
2022/04/12 06:56:06;;;;;;;11.60;9.10;;;;;;;;;;5037168;28;20048;-71
2022/04/12 06:58:33;;;;;;;11.38;8.70;;;9.50;99.90;;;;;;5055598;28;20126;-71
2022/04/12 07:00:58;;;;;;;14.30;8.95;;;9.80;99.90;;;;;;5054977;28;20052;-71
2022/04/12 07:03:24;;;;;;;11.87;8.83;;;10.80;85.90;;;;;;5037112;28;20436;-71
2022/04/12 07:05:55;;;;;;;12.87;9.07;;;11.20;92.90;;;;;;5037460;28;20045;-71
2022/04/12 07:08:24;;;;;;;12.40;8.30;;;12.20;90.70;;;;;;5054879;28;20276;-71
2022/04/12 07:10:50;;;;;;;11.17;8.00;;;13.30;99.90;;;;;;5055141;28;20291;-71
2022/04/12 07:13:16;;;;;;;11.60;8.27;;;13.60;76.50;;;;;;5054536;28;20397;-71
2022/04/12 07:15:43;;;;;;;12.07;8.27;;;13.90;71.40;;;;;;5055081;28;20327;-71
2022/04/12 07:18:09;;;;;;;12.57;8.50;;;14.50;69.70;;;;;;5054854;28;20084;-71
2022/04/12 07:20:35;;;;;;;10.60;7.50;;;15.20;64.80;;;;;;5055039;28;20285;-71
2022/04/12 07:23:01;;;;;;;11.07;7.77;;;15.70;65.00;;;;;;5037279;28;20296;-71
2022/04/12 07:25:27;;;;;;;13.40;8.67;;;16.20;61.10;;;;;;5054939;28;20049;-69
2022/04/12 07:27:53;;;;;;;10.37;7.47;;;16.60;58.80;;;;;;5055148;28;20366;-69
2022/04/12 07:30:19;;;;;;;12.67;8.57;;;17.20;58.50;;;;;;5036944;28;20132;-69
2022/04/12 07:32:44;;;;;;;12.97;8.37;;;17.70;57.30;;;;;;5054566;28;20048;-69
2022/04/12 07:35:10;;;;;;;11.07;8.07;;;18.00;55.40;;;;;;5054198;28;20477;-70
2022/04/12 07:37:36;;;;;;;11.63;7.70;;;18.40;53.20;;;;;;5054728;28;20454;-69
2022/04/12 07:40:03;;;;;;;13.77;8.07;;;18.60;52.70;;;;;;5054042;28;20041;-70
2022/04/12 07:42:29;;;;;;;11.53;8.73;;;18.50;49.50;;;;;;5054421;28;20119;-70
2022/04/12 07:44:55;;;;;;;9.97;8.67;;;18.70;50.00;;;;;;5054732;28;20135;-70
2022/04/12 07:47:21;;;;;;;12.10;8.50;;;;;;;;;;5054112;28;20350;-70
2022/04/12 07:49:47;;;;;;;10.80;7.93;;;;;;;;;;5054007;28;20095;-70
2022/04/12 07:52:13;;;;;;;10.63;8.27;;;20.00;68.50;;;;;;5054086;28;20081;-69
2022/04/12 07:54:38;;;;;;;10.87;8.33;;;19.90;45.40;;;;;;5052843;28;20056;-69
2022/04/12 07:57:04;;;;;;;11.50;8.00;;;19.50;45.60;;;;;;5053994;28;20088;-70
2022/04/12 07:59:30;;;;;;;11.60;8.67;;;18.80;45.80;;;;;;5054148;28;20090;-69
2022/04/12 08:01:56;;;;;;;11.10;8.30;;;17.60;46.70;;;;;;5054343;28;20135;-69
2022/04/12 08:04:21;;;;;;;12.13;7.83;;;16.90;48.40;;;;;;5053634;28;20507;-70
2022/04/12 08:06:47;;;;;;;11.97;8.27;;;16.40;49.80;;;;;;5054021;28;20044;-71
2022/04/12 08:09:13;;;;;;;10.70;8.03;;;15.90;50.50;;;;;;5019583;28;20041;-71
2022/04/12 08:11:38;;;;;;;12.63;7.87;;;15.50;51.40;;;;;;5054457;28;20124;-71
2022/04/12 08:14:04;;;;;;;12.57;7.87;;;15.00;52.40;;;;;;5053791;28;20045;-72
2022/04/12 08:16:30;;;;;;;10.13;7.77;;;14.90;53.00;;;;;;5053996;28;20041;-71
2022/04/12 08:18:56;;;;;;;11.43;7.33;;;14.80;53.70;;;;;;5053884;28;20052;-71
2022/04/12 08:21:39;;;;;;;10.93;8.10;;;14.60;54.00;;;;;;5053079;28;20045;-71
2022/04/12 08:24:06;;;;;;;10.60;7.87;;;14.50;54.80;;;;;;5053046;28;20401;-72
2022/04/12 08:26:32;;;;;;;11.20;8.00;;;14.30;54.90;;;;;;5053701;28;20307;-71
2022/04/12 08:28:58;;;;;;;12.77;8.23;;;14.20;55.50;;;;;;5036151;28;20764;-71
2022/04/12 08:31:23;;;;;;;11.10;7.50;;;14.20;55.80;;;;;;5035595;28;20482;-71
2022/04/12 08:33:49;;;;;;;10.10;8.10;;;14.20;56.20;;;;;;5053747;28;20047;-71
2022/04/12 08:36:16;;;;;;;9.37;7.57;;;14.20;56.40;;;;;;5053299;28;20037;-71
2022/04/12 08:38:44;;;;;;;11.97;8.73;;;14.20;56.70;;;;;;5053893;28;20056;-71
2022/04/12 08:41:10;;;;;;;12.00;7.40;;;14.00;56.20;;;;;;5035432;28;20612;-71
2022/04/12 08:43:39;;;;;;;12.37;7.93;;;14.00;57.20;;;;;;5052980;28;20352;-71
2022/04/12 08:46:06;;;;;;;10.43;7.87;;;14.00;57.60;;;;;;5053074;28;20295;-71
2022/04/12 08:48:33;;;;;;;10.90;7.50;;;14.00;57.90;;;;;;5035335;28;20644;-70
2022/04/12 08:50:59;;;;;;;9.83;7.40;;;14.10;58.10;;;;;;5053341;28;20624;-71
2022/04/12 08:53:27;;;;;;;10.13;7.83;;;14.20;58.00;;;;;;5052936;28;20798;-70
2022/04/12 08:55:53;;;;;;;11.20;7.63;;;14.20;58.00;;;;;;5053218;28;20279;-71
2022/04/12 08:58:19;;;;;;;11.73;7.60;;;14.10;57.80;;;;;;5052964;28;20742;-71
2022/04/12 09:00:45;;;;;;;16.00;8.13;;;14.10;58.60;;;;;;5035176;28;20365;-71
2022/04/12 09:03:14;;;;;;;12.97;7.57;;;14.20;59.00;;;;;;5052416;28;20370;-71
2022/04/12 09:05:40;;;;;;;13.30;7.93;;;14.30;59.10;;;;;;5053078;28;20052;-70
2022/04/12 09:08:27;;;;;;;11.73;8.03;;;14.30;58.90;;;;;;5052925;28;20631;-71
2022/04/12 09:11:05;;;;;;;10.87;7.83;;;14.40;58.30;;;;;;5035327;28;20053;-71
2022/04/12 09:13:32;;;;;;;12.97;7.50;;;14.40;58.20;;;;;;5052444;28;20284;-71
2022/04/12 09:15:59;;;;;;;11.47;7.43;;;14.40;59.00;;;;;;5052446;28;20613;-71
2022/04/12 09:18:51;;;;;;;11.93;7.43;;;14.50;58.90;;;;;;5052543;28;20294;-71
2022/04/12 09:21:25;;;;;;;10.37;7.60;;;14.60;58.30;;;;;;5050183;28;20292;-70
2022/04/12 09:23:55;;;;;;;15.18;7.70;;;14.50;58.60;;;;;;5052984;28;20627;-71
2022/04/12 09:26:33;;;;;;;11.60;7.50;;;14.60;58.90;;;;;;5034863;28;20477;-71
2022/04/12 09:29:00;;;;;;;10.67;7.40;;;14.60;58.60;;;;;;5052759;28;20286;-70
2022/04/12 09:31:26;;;;;;;15.53;8.50;;;14.60;58.60;;;;;;5052121;28;20740;-71
2022/04/12 09:33:53;;;;;;;11.40;7.37;;;14.60;58.60;;;;;;5034993;28;20280;-71
2022/04/12 09:36:19;;;;;;;11.20;8.23;;;14.60;58.90;;;;;;5037946;28;20337;-71
2022/04/12 09:38:54;;;;;;;10.97;7.30;;;14.60;59.10;;;;;;5056712;28;20672;-70
2022/04/12 09:41:24;;;;;;;11.23;8.05;;;14.70;58.60;;;;;;5056560;28;20128;-71
2022/04/12 09:44:08;;;;;;;12.67;7.90;;;14.70;58.50;;;;;;5056857;28;20057;-70
2022/04/12 09:46:38;;;;;;;12.30;7.77;;;14.70;58.80;;;;;;5056195;28;20315;-71
2022/04/12 09:49:05;;;;;;;12.57;7.57;;;14.70;59.00;;;;;;5056052;28;20279;-71
2022/04/12 09:51:32;;;;;;;11.13;8.43;;;14.80;58.80;;;;;;5056310;28;20351;-70
2022/04/12 09:53:57;;;;;;;9.53;6.97;;;14.80;59.20;;;;;;5056580;28;20333;-71
2022/04/12 09:56:29;;;;;;;11.40;7.77;;;14.90;59.30;;;;;;5056173;28;20307;-71
2022/04/12 09:58:57;;;;;;;11.83;7.33;;;14.90;58.90;;;;;;5056311;28;20540;-71
2022/04/12 10:01:23;;;;;;;10.93;7.93;;;15.00;59.10;;;;;;5056067;28;20282;-71
2022/04/12 10:03:51;;;;;;;11.23;7.93;;;15.10;59.10;;;;;;5056270;28;20276;-71
2022/04/12 10:06:19;;;;;;;11.77;8.57;;;15.10;59.00;;;;;;5037997;28;20304;-71
2022/04/12 10:08:50;;;;;;;12.67;8.63;;;15.20;59.50;;;;;;5056146;28;20288;-71
2022/04/12 10:11:17;;;;;;;12.10;8.17;;;15.30;58.40;;;;;;5056237;28;20286;-71
2022/04/12 10:13:43;;;;;;;11.90;7.20;;;15.30;58.80;;;;;;5038603;28;20319;-71
2022/04/12 10:16:10;;;;;;;12.17;8.00;;;15.30;58.80;;;;;;5056076;28;20307;-71
2022/04/12 10:18:36;;;;;;;11.83;8.23;;;15.40;58.90;;;;;;5055724;28;20283;-71
2022/04/12 10:21:02;;;;;;;10.40;7.40;;;15.40;58.60;;;;;;5055969;28;20608;-71
2022/04/12 10:23:30;;;;;;;11.90;7.97;;;15.50;58.60;;;;;;5055688;28;20340;-71
2022/04/12 10:25:57;;;;;;;12.03;7.47;;;15.50;58.50;;;;;;5056061;28;20127;-71
2022/04/12 10:28:25;;;;;;;12.40;7.77;;;15.60;58.70;;;;;;5055669;28;20275;-71
2022/04/12 10:30:51;;;;;;;14.07;7.77;;;15.60;58.70;;;;;;5055761;28;20674;-71
2022/04/12 10:33:30;;;;;;;10.93;7.60;;;15.70;58.90;;;;;;5055667;28;20333;-72
2022/04/12 10:35:56;;;;;;;11.37;8.30;;;15.80;58.30;;;;;;5055748;28;20041;-71
2022/04/12 10:38:24;;;;;;;13.73;8.93;;;15.90;58.10;;;;;;5055536;28;20295;-70
2022/04/12 10:40:53;;;;;;;10.17;7.33;;;15.80;58.00;;;;;;5038012;28;20287;-71
2022/04/12 10:43:29;;;;;;;10.50;8.13;;;15.90;58.40;;;;;;5054740;28;20306;-72
2022/04/12 10:45:57;;;;;;;11.97;7.93;;;15.90;57.90;;;;;;5054625;28;20371;-71
2022/04/12 10:48:29;;;;;;;9.77;7.13;;;15.90;57.80;;;;;;5054703;28;20284;-71
2022/04/12 10:50:56;;;;;;;12.20;7.53;;;16.00;57.70;;;;;;5055469;28;20278;-71
2022/04/12 10:53:40;;;;;;;10.50;7.90;;;16.00;58.10;;;;;;5054992;28;20802;-71
2022/04/12 10:56:10;;;;;;;9.53;7.03;;;16.10;58.20;;;;;;5055272;28;20276;-70
2022/04/12 10:58:36;;;;;;;10.67;7.40;;;16.10;58.00;;;;;;5054960;28;20295;-70
2022/04/12 11:01:03;;;;;;;9.73;7.10;;;16.20;57.80;;;;;;5054876;28;20882;-70
2022/04/12 11:03:41;;;;;;;12.20;7.83;;;16.30;57.50;;;;;;5055227;28;20303;-71
2022/04/12 11:06:24;;;;;;;10.73;8.07;;;16.40;58.30;;;;;;5053987;28;20743;-70
2022/04/12 11:08:53;;;;;;;12.47;7.27;;;16.50;58.30;;;;;;5054788;28;20759;-70
2022/04/12 11:11:40;;;;;;;11.57;6.83;;;16.50;58.10;;;;;;5055044;28;20631;-70
2022/04/12 11:14:25;;;;;;;10.70;6.70;;;16.50;58.30;;;;;;5055300;28;20288;-70
2022/04/12 11:16:55;;;;;;;9.90;7.18;;;16.60;58.40;;;;;;5037675;28;20755;-70
2022/04/12 11:19:22;;;;;;;12.67;7.90;;;16.60;58.00;;;;;;5054920;28;20076;-70
2022/04/12 11:21:56;;;;;;;10.33;7.67;;;16.60;57.40;;;;;;5054864;28;20057;-70
2022/04/12 11:24:24;;;;;;;10.15;7.53;;;16.60;57.30;;;;;;5054665;28;20283;-71
2022/04/12 11:27:10;;;;;;;9.73;6.93;;;16.60;58.20;;;;;;5054866;28;20037;-71
2022/04/12 11:29:37;;;;;;;10.73;7.47;;;16.70;58.30;;;;;;5054833;28;20417;-71
2022/04/12 11:32:04;;;;;;;12.07;7.30;;;16.70;58.60;;;;;;5054746;28;20286;-70
2022/04/12 11:34:31;;;;;;;12.97;7.30;;;16.80;58.50;;;;;;5054391;28;20508;-71
2022/04/12 11:37:03;;;;;;;11.80;7.67;;;16.80;58.40;;;;;;5037301;28;20358;-70
2022/04/12 11:39:37;;;;;;;12.53;7.07;;;16.80;57.80;;;;;;5036550;28;20386;-71
2022/04/12 11:42:10;;;;;;;10.33;6.57;;;16.90;58.30;;;;;;5054329;28;20053;-71
2022/04/12 11:44:36;;;;;;;11.53;7.40;;;17.00;57.60;;;;;;5053518;28;20464;-70
2022/04/12 11:47:05;;;;;;;11.20;7.00;;;17.00;56.90;;;;;;5053989;28;20500;-70
2022/04/12 11:49:33;;;;;;;12.50;7.40;;;17.00;57.60;;;;;;5053799;28;20486;-71
2022/04/12 11:52:00;;;;;;;11.27;7.33;;;17.10;57.60;;;;;;5054246;28;20378;-70
2022/04/12 11:54:31;;;;;;;10.90;7.40;;;17.10;57.30;;;;;;5052774;28;20057;-71
2022/04/12 11:57:20;;;;;;;11.23;6.50;;;17.20;57.20;;;;;;5054236;28;20364;-71
2022/04/12 11:59:51;;;;;;;12.87;8.13;;;17.20;56.60;;;;;;5053006;28;20126;-71
2022/04/12 12:02:22;;;;;;;10.70;6.93;;;17.20;58.00;;;;;;5054238;28;20460;-71
2022/04/12 12:04:49;;;;;;;11.97;6.40;;;17.30;57.50;;;;;;5053903;28;20448;-71
2022/04/12 12:07:15;;;;;;;11.33;6.77;;;17.20;57.20;;;;;;5053853;28;20041;-71
2022/04/12 12:09:56;;;;;;;11.47;7.50;;;17.30;57.40;;;;;;5053755;28;20116;-71
2022/04/12 12:12:45;;;;;;;10.43;7.53;;;17.40;57.90;;;;;;5053972;28;20081;-71
2022/04/12 12:15:22;;;;;;;11.97;7.50;;;17.40;57.90;;;;;;5053885;28;20055;-71
2022/04/12 12:17:53;;;;;;;12.80;7.63;;;17.50;57.80;;;;;;5053364;28;20477;-71
2022/04/12 12:20:21;;;;;;;11.10;7.97;;;17.50;57.20;;;;;;5053936;28;20091;-71
2022/04/12 12:22:49;;;;;;;11.00;7.33;;;17.60;58.00;;;;;;5052326;28;20057;-71
2022/04/12 12:25:23;;;;;;;13.57;7.27;;;17.60;57.80;;;;;;5053642;28;20037;-71
2022/04/12 12:27:53;;;;;;;11.85;8.25;;;17.70;59.60;;;;;;5053486;28;20052;-71
2022/04/12 12:30:29;;;;;;;9.93;7.50;;;17.70;57.50;;;;;;5053546;28;20045;-71
2022/04/12 12:32:56;;;;;;;9.77;7.17;;;17.70;59.30;;;;;;5036353;28;20053;-71
2022/04/12 12:35:28;;;;;;;10.40;7.33;;;17.80;61.00;;;;;;5053445;28;20036;-71
2022/04/12 12:38:15;;;;;;;13.03;7.80;;;17.90;57.90;;;;;;5053624;28;20123;-71
2022/04/12 12:40:43;;;;;;;11.57;7.10;;;17.80;57.50;;;;;;5053248;28;20045;-71
2022/04/12 12:43:13;;;;;;;12.67;7.50;;;17.80;57.30;;;;;;5053334;28;20132;-71
2022/04/12 12:45:45;;;;;;;10.57;7.20;;;17.90;57.00;;;;;;5053069;28;20126;-71
2022/04/12 12:48:18;;;;;;;13.17;7.10;;;17.90;56.90;;;;;;5053248;28;20045;-71